createdAt,value
2022-08-01T00:03:16.499Z,18.6
2022-08-01T00:23:20.774Z,18.5
2022-08-01T00:33:22.549Z,18.4
2022-08-01T00:43:25.158Z,18.4
2022-08-01T00:53:27.008Z,18.3
2022-08-01T01:03:56.175Z,18.2
2022-08-01T01:13:31.525Z,18.1
2022-08-01T01:23:33.620Z,18.1
2022-08-01T01:33:36.013Z,18.1
2022-08-01T01:43:37.891Z,18.2
2022-08-01T01:53:39.757Z,18.2
2022-08-01T02:03:41.697Z,18.2
2022-08-01T02:13:43.692Z,18.2
2022-08-01T02:33:47.912Z,18.1
2022-08-01T02:43:50.760Z,17.8
2022-08-01T02:53:51.568Z,17.7
2022-08-01T03:03:53.781Z,17.6
2022-08-01T03:23:57.824Z,17.4
2022-08-01T03:34:04.072Z,17.3
2022-08-01T03:44:01.752Z,17.3
2022-08-01T04:04:06.127Z,17.3
2022-08-01T04:14:09.174Z,17.3
2022-08-01T04:14:15.570Z,17.3
2022-08-01T04:24:18.090Z,17.3
2022-08-01T04:34:20.408Z,17.3
2022-08-01T04:54:24.340Z,17.4
2022-08-01T05:04:26.333Z,17.5
2022-08-01T05:14:28.779Z,17.6
2022-08-01T05:24:31.007Z,17.6
2022-08-01T05:34:33.591Z,17.7
2022-08-01T05:44:35.833Z,17.9
2022-08-01T05:54:38.158Z,18
2022-08-01T06:04:40.677Z,18.1
2022-08-01T06:14:43.030Z,18.4
2022-08-01T06:24:45.192Z,18.7
2022-08-01T06:34:47.386Z,18.7
2022-08-01T06:44:49.525Z,18.5
2022-08-01T06:54:51.883Z,18.8
2022-08-01T07:04:54.103Z,19.2
2022-08-01T07:14:55.928Z,19.4
2022-08-01T07:24:58.001Z,20.5
2022-08-01T07:35:00.388Z,20.7
2022-08-01T07:45:02.334Z,22.1
2022-08-01T08:05:06.177Z,20.4
2022-08-01T08:15:07.865Z,20.8
2022-08-01T08:25:10.429Z,22.3
2022-08-01T08:35:14.390Z,21
2022-08-01T08:45:15.065Z,22.1
2022-08-01T08:55:17.188Z,21.3
2022-08-01T09:05:19.791Z,22.4
2022-08-01T09:15:20.908Z,22.2
2022-08-01T09:25:22.613Z,21.9
2022-08-01T09:35:30.503Z,21.6
2022-08-01T09:45:26.704Z,20.3
2022-08-01T09:55:28.936Z,21.5
2022-08-01T10:15:36.642Z,21.8
2022-08-01T10:25:41.541Z,20.7
2022-08-01T10:35:46.155Z,22.2
2022-08-01T10:45:40.532Z,22.5
2022-08-01T10:55:42.224Z,21.4
2022-08-01T11:05:44.334Z,21.9
2022-08-01T11:15:49.864Z,22.1
2022-08-01T11:25:58.302Z,22.2
2022-08-01T11:35:51.338Z,21.7
2022-08-01T11:45:53.930Z,21.4
2022-08-01T11:55:56.016Z,21.8
2022-08-01T12:05:58.178Z,21.5
2022-08-01T12:16:00.277Z,22.7
2022-08-01T12:26:02.674Z,22.5
2022-08-01T12:36:04.462Z,21.8
2022-08-01T12:46:07.076Z,21.6
2022-08-01T13:06:11.322Z,24.5
2022-08-01T13:16:16.342Z,22.6
2022-08-01T13:26:16.060Z,22.3
2022-08-01T13:36:17.906Z,21.5
2022-08-01T13:46:19.923Z,21.7
2022-08-01T13:56:21.670Z,21.5
2022-08-01T14:06:23.828Z,20.9
2022-08-01T14:16:25.909Z,21.8
2022-08-01T14:26:28.380Z,22.5
2022-08-01T14:36:31.679Z,21.4
2022-08-01T14:46:33.932Z,21.9
2022-08-01T14:56:35.393Z,21.6
2022-08-01T15:06:37.812Z,21.4
2022-08-01T15:16:39.987Z,21.3
2022-08-01T15:26:41.687Z,21.3
2022-08-01T15:36:44.318Z,21.5
2022-08-01T15:56:48.259Z,21.8
2022-08-01T16:06:50.450Z,21.6
2022-08-01T16:16:53.236Z,21.7
2022-08-01T16:26:54.904Z,21.4
2022-08-01T16:36:57.427Z,21.4
2022-08-01T16:46:59.850Z,21.7
2022-08-01T16:57:08.112Z,21.9
2022-08-01T17:07:04.487Z,21.5
2022-08-01T17:17:06.256Z,21.8
2022-08-01T17:27:12.336Z,21.5
2022-08-01T17:37:10.860Z,21.2
2022-08-01T17:47:14.634Z,21.4
2022-08-01T17:57:15.181Z,21
2022-08-01T18:07:17.213Z,20.8
2022-08-01T18:17:18.682Z,20.9
2022-08-01T18:27:20.870Z,20.8
2022-08-01T18:47:25.803Z,20.7
2022-08-01T18:57:27.602Z,20.5
2022-08-01T19:07:53.807Z,20.3
2022-08-01T19:17:32.675Z,19.9
2022-08-01T19:27:34.987Z,19.6
2022-08-01T19:37:37.063Z,19.2
2022-08-01T19:47:50.812Z,18.8
2022-08-01T19:57:45.362Z,18.4
2022-08-01T20:07:44.642Z,17.9
2022-08-01T20:17:46.857Z,17.6
2022-08-01T20:27:49.038Z,17.4
2022-08-01T20:38:04.238Z,17
2022-08-01T20:47:52.744Z,16.7
2022-08-01T20:57:55.033Z,16.7
2022-08-01T21:07:57.373Z,16.3
2022-08-01T21:17:59.690Z,16.2
2022-08-01T21:28:02.193Z,15.9
2022-08-01T21:38:03.854Z,15.6
2022-08-01T21:58:08.341Z,15.7
2022-08-01T22:08:10.392Z,15.6
2022-08-01T22:18:12.209Z,15.3
2022-08-01T22:38:16.723Z,15
2022-08-01T22:48:18.832Z,14.7
2022-08-01T22:58:21.064Z,14.9
2022-08-01T23:08:23.142Z,14.8
2022-08-01T23:18:24.998Z,14.6
2022-08-01T23:28:26.647Z,14.1
2022-08-01T23:38:28.885Z,14
2022-08-01T23:48:30.552Z,13.9
2022-08-01T23:58:32.319Z,13.7
